ITY94 LIMC-KJFK
Flight info
| Callsign | ITY94 |
|---|---|
| Flight time | 1h 59m |
| Altitude | 40000 |
| Route | AOSTA DCT ORSUD DCT MOLUS DCT UNKIR DCT DJL DCT OKRIX DCT AMODO DCT COHPA UM729 RESMI UN491 LGL UN502 JSY DCT LIZAD DCT LULOX/M084F400 DCT GIPER DCT ELSOX DCT DINIM NATF MUSAK/N0475F400 N296B TUSKY DCT PLYMM PARCH3 |
| Aircraft | A359/H-SDE2E3GHIJ3J4J5LM1ORWXY/LB1D1 |
Departure
| Time | 2026-05-06 12:47 |
|---|---|
| Airport | Milan Malpensa International Airport (LIMC) |
Arrival
| Time | 2026-05-06 14:47 |
|---|---|
| Airport | John F. Kennedy International Airport (KJFK) |
| Time | Latitude | Longitude | Altitude | Speed | Heading |
|---|---|---|---|---|---|
| 2026-05-06 12:47 | 45.69426 | 8.42621 | 7951 ft | 273 kts | 276° |
| 2026-05-06 12:47 | 45.69694 | 8.39914 | 8690 ft | 276 kts | 276° |
| 2026-05-06 12:48 | 45.69963 | 8.37189 | 9487 ft | 277 kts | 275° |
| 2026-05-06 12:48 | 45.70881 | 8.27732 | 10732 ft | 326 kts | 276° |
| 2026-05-06 12:48 | 45.72253 | 8.13749 | 12316 ft | 369 kts | 276° |
| 2026-05-06 12:48 | 45.73685 | 7.98919 | 14698 ft | 384 kts | 275° |
| 2026-05-06 12:49 | 45.75127 | 7.83652 | 16975 ft | 397 kts | 275° |
| 2026-05-06 12:49 | 45.77309 | 7.60407 | 20460 ft | 410 kts | 275° |
| 2026-05-06 12:49 | 45.83255 | 7.28132 | 25053 ft | 450 kts | 303° |
| 2026-05-06 12:49 | 46.06050 | 7.08337 | 28610 ft | 495 kts | 322° |
| 2026-05-06 12:50 | 46.28493 | 6.84363 | 30961 ft | 505 kts | 317° |
| 2026-05-06 12:50 | 46.49276 | 6.58548 | 32748 ft | 485 kts | 296° |
| 2026-05-06 12:50 | 46.61514 | 6.23833 | 34717 ft | 482 kts | 295° |
| 2026-05-06 12:50 | 46.74950 | 5.89979 | 36166 ft | 483 kts | 296° |
| 2026-05-06 12:51 | 46.90960 | 5.58496 | 37672 ft | 493 kts | 316° |
| 2026-05-06 12:51 | 47.11513 | 5.31711 | 38501 ft | 492 kts | 313° |
| 2026-05-06 12:51 | 47.30525 | 5.03458 | 38924 ft | 487 kts | 304° |
| 2026-05-06 12:51 | 47.45401 | 4.70033 | 39251 ft | 487 kts | 301° |
| 2026-05-06 12:52 | 47.60645 | 4.37032 | 39717 ft | 485 kts | 301° |
| 2026-05-06 12:52 | 47.75734 | 4.03604 | 39905 ft | 488 kts | 301° |
| 2026-05-06 12:52 | 47.90952 | 3.69579 | 39891 ft | 491 kts | 301° |
| 2026-05-06 12:52 | 48.09241 | 3.39635 | 39906 ft | 499 kts | 320° |
| 2026-05-06 12:53 | 48.30495 | 3.13199 | 39900 ft | 495 kts | 316° |
| 2026-05-06 12:53 | 48.46534 | 2.81213 | 39902 ft | 474 kts | 282° |
| 2026-05-06 12:53 | 48.52287 | 2.42371 | 39910 ft | 482 kts | 285° |
| 2026-05-06 12:54 | 48.64570 | 1.63271 | 39917 ft | 484 kts | 281° |
| 2026-05-06 12:54 | 48.75192 | 0.83445 | 39936 ft | 483 kts | 280° |
| 2026-05-06 12:55 | 48.87930 | 0.04211 | 39957 ft | 483 kts | 284° |
| 2026-05-06 12:55 | 49.01348 | -0.74920 | 39973 ft | 482 kts | 283° |
| 2026-05-06 12:56 | 49.14141 | -1.53803 | 39982 ft | 481 kts | 283° |
| 2026-05-06 12:56 | 49.27012 | -2.33410 | 39968 ft | 481 kts | 284° |
| 2026-05-06 12:57 | 49.40238 | -3.12758 | 39995 ft | 478 kts | 283° |
| 2026-05-06 12:57 | 49.52828 | -3.92242 | 39974 ft | 478 kts | 283° |
| 2026-05-06 12:58 | 49.67750 | -4.71024 | 40001 ft | 478 kts | 289° |
| 2026-05-06 12:58 | 49.84965 | -5.48313 | 39990 ft | 478 kts | 288° |
| 2026-05-06 12:59 | 50.01764 | -6.26637 | 40031 ft | 477 kts | 288° |
| 2026-05-06 12:59 | 50.17998 | -7.05336 | 40033 ft | 478 kts | 287° |
| 2026-05-06 13:00 | 50.33720 | -7.84665 | 40035 ft | 477 kts | 287° |
| 2026-05-06 13:00 | 50.47998 | -8.64896 | 40017 ft | 478 kts | 285° |
| 2026-05-06 13:01 | 50.61561 | -9.45830 | 40046 ft | 478 kts | 285° |
| 2026-05-06 13:01 | 50.74453 | -10.26615 | 40027 ft | 478 kts | 284° |
| 2026-05-06 13:02 | 50.86861 | -11.08406 | 40047 ft | 479 kts | 284° |
| 2026-05-06 13:02 | 50.98739 | -11.90889 | 40054 ft | 479 kts | 283° |
| 2026-05-06 13:02 | 51.00415 | -12.32947 | 40063 ft | 482 kts | 270° |
| 2026-05-06 13:03 | 51.00389 | -12.75542 | 40066 ft | 482 kts | 272° |
| 2026-05-06 13:03 | 51.00280 | -13.60866 | 40068 ft | 483 kts | 271° |
| 2026-05-06 13:04 | 51.00128 | -14.46262 | 40077 ft | 484 kts | 272° |
| 2026-05-06 13:04 | 51.01598 | -15.16959 | 40078 ft | 480 kts | 283° |
| 2026-05-06 13:05 | 51.11808 | -16.00078 | 40081 ft | 477 kts | 282° |
| 2026-05-06 13:05 | 51.20929 | -16.83116 | 40075 ft | 474 kts | 281° |
| 2026-05-06 13:06 | 51.29408 | -17.66032 | 40069 ft | 472 kts | 280° |
| 2026-05-06 13:06 | 51.37298 | -18.49309 | 40063 ft | 473 kts | 279° |
| 2026-05-06 13:07 | 51.44617 | -19.32959 | 40066 ft | 474 kts | 278° |
| 2026-05-06 13:07 | 51.50994 | -20.16806 | 40062 ft | 474 kts | 273° |
| 2026-05-06 13:08 | 51.53889 | -21.00854 | 40073 ft | 474 kts | 273° |
| 2026-05-06 13:08 | 51.56451 | -21.85409 | 40078 ft | 473 kts | 272° |
| 2026-05-06 13:09 | 51.58405 | -22.69970 | 40075 ft | 473 kts | 271° |
| 2026-05-06 13:09 | 51.59755 | -23.54650 | 40080 ft | 473 kts | 270° |
| 2026-05-06 13:10 | 51.60495 | -24.39441 | 40064 ft | 474 kts | 270° |
| 2026-05-06 13:10 | 51.60626 | -25.24363 | 40056 ft | 475 kts | 269° |
| 2026-05-06 13:11 | 51.60143 | -26.09413 | 40042 ft | 476 kts | 268° |
| 2026-05-06 13:11 | 51.59048 | -26.94229 | 40024 ft | 477 kts | 268° |
| 2026-05-06 13:12 | 51.57321 | -27.79879 | 40000 ft | 479 kts | 267° |
| 2026-05-06 13:12 | 51.54972 | -28.65500 | 39984 ft | 479 kts | 267° |
| 2026-05-06 13:13 | 51.51995 | -29.51015 | 39986 ft | 481 kts | 266° |
| 2026-05-06 13:13 | 51.49649 | -30.36316 | 40008 ft | 476 kts | 270° |
| 2026-05-06 13:14 | 51.48537 | -31.20745 | 40016 ft | 476 kts | 268° |
| 2026-05-06 13:14 | 51.46744 | -32.05976 | 40067 ft | 479 kts | 268° |
| 2026-05-06 13:15 | 51.44330 | -32.91478 | 40080 ft | 479 kts | 267° |
| 2026-05-06 13:15 | 51.41282 | -33.77010 | 40102 ft | 481 kts | 267° |
| 2026-05-06 13:16 | 51.37645 | -34.61790 | 40112 ft | 479 kts | 267° |
| 2026-05-06 13:16 | 51.33378 | -35.46750 | 40113 ft | 477 kts | 266° |
| 2026-05-06 13:17 | 51.28531 | -36.31137 | 40113 ft | 476 kts | 266° |
| 2026-05-06 13:17 | 51.23077 | -37.15235 | 40122 ft | 476 kts | 265° |
| 2026-05-06 13:18 | 51.17036 | -37.98878 | 40130 ft | 473 kts | 265° |
| 2026-05-06 13:18 | 51.10449 | -38.81859 | 40139 ft | 471 kts | 265° |
| 2026-05-06 13:19 | 51.03290 | -39.64347 | 40159 ft | 469 kts | 264° |
| 2026-05-06 13:19 | 50.91126 | -40.44549 | 40130 ft | 471 kts | 255° |
| 2026-05-06 13:20 | 50.75052 | -41.23452 | 40157 ft | 471 kts | 255° |
| 2026-05-06 13:20 | 50.58377 | -42.01879 | 40170 ft | 471 kts | 255° |
| 2026-05-06 13:21 | 50.44420 | -42.65319 | 40177 ft | 470 kts | 254° |
| 2026-05-06 13:21 | 50.35707 | -43.03930 | 40183 ft | 469 kts | 254° |
| 2026-05-06 13:22 | 50.30830 | -43.25242 | 40187 ft | 467 kts | 254° |
| 2026-05-06 13:22 | 50.28630 | -43.34791 | 40186 ft | 466 kts | 254° |
| 2026-05-06 13:23 | 50.25669 | -43.47582 | 40186 ft | 466 kts | 254° |
| 2026-05-06 13:23 | 50.23337 | -43.57600 | 40175 ft | 466 kts | 254° |
| 2026-05-06 13:24 | 50.21118 | -43.67082 | 40183 ft | 464 kts | 254° |
| 2026-05-06 13:24 | 50.18899 | -43.76527 | 40181 ft | 463 kts | 254° |
| 2026-05-06 13:25 | 50.14685 | -43.94354 | 40183 ft | 463 kts | 254° |
| 2026-05-06 13:25 | 50.12417 | -44.03887 | 40179 ft | 463 kts | 254° |
| 2026-05-06 13:26 | 50.10169 | -44.13290 | 40186 ft | 461 kts | 253° |
| 2026-05-06 13:26 | 50.07940 | -44.22580 | 40181 ft | 460 kts | 253° |
| 2026-05-06 13:27 | 50.05690 | -44.31916 | 40181 ft | 460 kts | 253° |
| 2026-05-06 13:27 | 50.03433 | -44.41241 | 40181 ft | 460 kts | 253° |
| 2026-05-06 13:28 | 50.01174 | -44.50535 | 40184 ft | 459 kts | 253° |
| 2026-05-06 13:28 | 49.98927 | -44.59740 | 40184 ft | 458 kts | 253° |
| 2026-05-06 13:29 | 49.96661 | -44.68988 | 40179 ft | 458 kts | 253° |
| 2026-05-06 13:29 | 49.94385 | -44.78235 | 40184 ft | 458 kts | 253° |
| 2026-05-06 13:30 | 49.92105 | -44.87462 | 40172 ft | 458 kts | 253° |
| 2026-05-06 13:30 | 49.89819 | -44.96666 | 40186 ft | 456 kts | 253° |
| 2026-05-06 13:31 | 49.87527 | -45.05859 | 40185 ft | 456 kts | 253° |
| 2026-05-06 13:31 | 49.85233 | -45.15027 | 40187 ft | 456 kts | 253° |
| 2026-05-06 13:32 | 49.82968 | -45.24043 | 39971 ft | 455 kts | 253° |
| 2026-05-06 13:32 | 49.81805 | -45.28653 | 39735 ft | 452 kts | 253° |
| 2026-05-06 13:32 | 49.80677 | -45.33116 | 39501 ft | 450 kts | 253° |
| 2026-05-06 13:32 | 49.79533 | -45.37633 | 39274 ft | 449 kts | 253° |
| 2026-05-06 13:33 | 49.78395 | -45.42119 | 39191 ft | 448 kts | 253° |
| 2026-05-06 13:33 | 49.76118 | -45.51080 | 39187 ft | 447 kts | 253° |
| 2026-05-06 13:34 | 49.73836 | -45.60023 | 39189 ft | 446 kts | 253° |
| 2026-05-06 13:34 | 49.71550 | -45.68943 | 39186 ft | 446 kts | 253° |
| 2026-05-06 13:35 | 49.69269 | -45.77806 | 39180 ft | 446 kts | 253° |
| 2026-05-06 13:35 | 49.66971 | -45.86703 | 39184 ft | 446 kts | 253° |
| 2026-05-06 13:36 | 49.64664 | -45.95596 | 39187 ft | 446 kts | 253° |
| 2026-05-06 13:36 | 49.62350 | -46.04482 | 39187 ft | 446 kts | 253° |
| 2026-05-06 13:37 | 49.59959 | -46.13630 | 39174 ft | 446 kts | 253° |
| 2026-05-06 13:37 | 49.48625 | -46.56529 | 39180 ft | 447 kts | 252° |
| 2026-05-06 13:38 | 49.29490 | -47.27145 | 39187 ft | 448 kts | 251° |
| 2026-05-06 13:38 | 49.09944 | -47.97189 | 39187 ft | 447 kts | 251° |
| 2026-05-06 13:39 | 48.90170 | -48.65985 | 39187 ft | 446 kts | 250° |
| 2026-05-06 13:39 | 48.69858 | -49.34674 | 39181 ft | 445 kts | 249° |
| 2026-05-06 13:40 | 48.49217 | -50.02960 | 39194 ft | 444 kts | 251° |
| 2026-05-06 13:40 | 48.32306 | -50.72863 | 39184 ft | 444 kts | 252° |
| 2026-05-06 13:41 | 48.14927 | -51.42148 | 39172 ft | 443 kts | 250° |
| 2026-05-06 13:41 | 47.97364 | -52.11098 | 39176 ft | 443 kts | 253° |
| 2026-05-06 13:42 | 47.82785 | -52.80208 | 39176 ft | 437 kts | 252° |
| 2026-05-06 13:42 | 47.67522 | -53.48847 | 39217 ft | 438 kts | 251° |
| 2026-05-06 13:43 | 47.51811 | -54.17232 | 39245 ft | 439 kts | 251° |
| 2026-05-06 13:43 | 47.35655 | -54.85350 | 39230 ft | 438 kts | 249° |
| 2026-05-06 13:44 | 47.19097 | -55.53088 | 39176 ft | 445 kts | 248° |
| 2026-05-06 13:44 | 47.01849 | -56.21500 | 39233 ft | 450 kts | 248° |
| 2026-05-06 13:45 | 46.84093 | -56.89963 | 39194 ft | 446 kts | 248° |
| 2026-05-06 13:45 | 46.57136 | -57.90046 | 39177 ft | 441 kts | 247° |
| 2026-05-06 13:46 | 46.38778 | -58.55930 | 39162 ft | 439 kts | 246° |
| 2026-05-06 13:46 | 46.20059 | -59.21294 | 39149 ft | 438 kts | 246° |
| 2026-05-06 13:47 | 46.01043 | -59.85944 | 39130 ft | 437 kts | 246° |
| 2026-05-06 13:47 | 45.81774 | -60.49824 | 39140 ft | 439 kts | 246° |
| 2026-05-06 13:48 | 45.61956 | -61.13887 | 39125 ft | 440 kts | 246° |
| 2026-05-06 13:48 | 45.41730 | -61.77588 | 39118 ft | 439 kts | 246° |
| 2026-05-06 13:49 | 45.21432 | -62.40113 | 39152 ft | 437 kts | 246° |
| 2026-05-06 13:49 | 45.04317 | -62.91631 | 39143 ft | 434 kts | 246° |
| 2026-05-06 13:50 | 44.81496 | -63.58825 | 39110 ft | 435 kts | 245° |
| 2026-05-06 13:50 | 44.79331 | -63.65108 | 39110 ft | 435 kts | 245° |
| 2026-05-06 13:51 | 44.76685 | -63.72765 | 39113 ft | 435 kts | 245° |
| 2026-05-06 13:51 | 44.71961 | -63.86394 | 39093 ft | 434 kts | 245° |
| 2026-05-06 13:52 | 44.66692 | -64.01514 | 39099 ft | 437 kts | 245° |
| 2026-05-06 13:52 | 44.61356 | -64.16739 | 39083 ft | 437 kts | 245° |
| 2026-05-06 13:53 | 44.55994 | -64.31953 | 39080 ft | 437 kts | 245° |
| 2026-05-06 13:53 | 44.50555 | -64.47299 | 39072 ft | 440 kts | 245° |
| 2026-05-06 13:54 | 44.45438 | -64.61657 | 39073 ft | 441 kts | 245° |
| 2026-05-06 13:54 | 44.39908 | -64.77091 | 39083 ft | 442 kts | 245° |
| 2026-05-06 13:55 | 44.34392 | -64.92401 | 39073 ft | 442 kts | 245° |
| 2026-05-06 13:55 | 44.28824 | -65.07767 | 39089 ft | 444 kts | 245° |
| 2026-05-06 13:56 | 44.23220 | -65.23146 | 39092 ft | 444 kts | 245° |
| 2026-05-06 13:56 | 44.17596 | -65.38495 | 39086 ft | 444 kts | 245° |
| 2026-05-06 13:57 | 44.11995 | -65.53697 | 39087 ft | 445 kts | 245° |
| 2026-05-06 13:57 | 44.06357 | -65.68913 | 39083 ft | 442 kts | 244° |
| 2026-05-06 13:58 | 44.00699 | -65.84103 | 39066 ft | 442 kts | 244° |
| 2026-05-06 13:58 | 43.95039 | -65.99212 | 39052 ft | 442 kts | 245° |
| 2026-05-06 13:59 | 43.89340 | -66.14348 | 39054 ft | 442 kts | 245° |
| 2026-05-06 13:59 | 43.83646 | -66.29388 | 39045 ft | 444 kts | 244° |
| 2026-05-06 14:00 | 43.77898 | -66.44489 | 39050 ft | 444 kts | 244° |
| 2026-05-06 14:00 | 43.72133 | -66.59550 | 39036 ft | 444 kts | 244° |
| 2026-05-06 14:01 | 43.66357 | -66.74565 | 39034 ft | 444 kts | 244° |
| 2026-05-06 14:01 | 43.60543 | -66.89589 | 39033 ft | 439 kts | 244° |
| 2026-05-06 14:02 | 43.54748 | -67.04388 | 39023 ft | 439 kts | 243° |
| 2026-05-06 14:02 | 43.48553 | -67.18973 | 39026 ft | 440 kts | 243° |
| 2026-05-06 14:03 | 43.42418 | -67.33450 | 39018 ft | 440 kts | 243° |
| 2026-05-06 14:03 | 43.36280 | -67.47922 | 39021 ft | 440 kts | 243° |
| 2026-05-06 14:04 | 43.30070 | -67.62486 | 39012 ft | 440 kts | 243° |
| 2026-05-06 14:04 | 43.23870 | -67.76951 | 39018 ft | 440 kts | 243° |
| 2026-05-06 14:05 | 43.17643 | -67.91406 | 39020 ft | 441 kts | 243° |
| 2026-05-06 14:05 | 43.11383 | -68.05863 | 39022 ft | 437 kts | 243° |
| 2026-05-06 14:06 | 43.05189 | -68.20104 | 39014 ft | 436 kts | 243° |
| 2026-05-06 14:06 | 42.98952 | -68.34371 | 39008 ft | 435 kts | 243° |
| 2026-05-06 14:07 | 42.92776 | -68.48433 | 39001 ft | 435 kts | 243° |
| 2026-05-06 14:07 | 42.86545 | -68.62548 | 38997 ft | 433 kts | 243° |
| 2026-05-06 14:08 | 42.80319 | -68.76588 | 38996 ft | 433 kts | 243° |
| 2026-05-06 14:08 | 42.74061 | -68.90632 | 38991 ft | 431 kts | 243° |
| 2026-05-06 14:09 | 42.67881 | -69.04434 | 38980 ft | 430 kts | 243° |
| 2026-05-06 14:09 | 42.61632 | -69.18327 | 38980 ft | 429 kts | 243° |
| 2026-05-06 14:10 | 42.55390 | -69.32136 | 38984 ft | 426 kts | 243° |
| 2026-05-06 14:10 | 42.49211 | -69.45748 | 38980 ft | 427 kts | 243° |
| 2026-05-06 14:11 | 42.42996 | -69.59373 | 38974 ft | 425 kts | 243° |
| 2026-05-06 14:11 | 42.36744 | -69.73018 | 38971 ft | 426 kts | 243° |
| 2026-05-06 14:12 | 42.30510 | -69.86564 | 38978 ft | 427 kts | 243° |
| 2026-05-06 14:12 | 42.24218 | -70.00167 | 38946 ft | 425 kts | 243° |
| 2026-05-06 14:13 | 42.17952 | -70.13662 | 38986 ft | 426 kts | 243° |
| 2026-05-06 14:13 | 42.11642 | -70.27182 | 38989 ft | 425 kts | 243° |
| 2026-05-06 14:14 | 42.05336 | -70.40638 | 38943 ft | 424 kts | 243° |
| 2026-05-06 14:14 | 41.99647 | -70.54485 | 38934 ft | 421 kts | 247° |
| 2026-05-06 14:15 | 41.94184 | -70.68320 | 38954 ft | 422 kts | 247° |
| 2026-05-06 14:15 | 41.88626 | -70.82227 | 38952 ft | 422 kts | 247° |
| 2026-05-06 14:16 | 41.83053 | -70.96087 | 38954 ft | 417 kts | 247° |
| 2026-05-06 14:16 | 41.77527 | -71.09779 | 38953 ft | 417 kts | 247° |
| 2026-05-06 14:17 | 41.71991 | -71.23426 | 38964 ft | 418 kts | 247° |
| 2026-05-06 14:17 | 41.66440 | -71.37045 | 38941 ft | 418 kts | 247° |
| 2026-05-06 14:18 | 41.60862 | -71.50669 | 38944 ft | 418 kts | 247° |
| 2026-05-06 14:18 | 41.55256 | -71.64295 | 38953 ft | 414 kts | 248° |
| 2026-05-06 14:19 | 41.49710 | -71.77720 | 38962 ft | 413 kts | 248° |
| 2026-05-06 14:19 | 41.44173 | -71.91047 | 38974 ft | 401 kts | 248° |
| 2026-05-06 14:20 | 41.38891 | -72.03721 | 38951 ft | 390 kts | 248° |
| 2026-05-06 14:20 | 41.33582 | -72.16411 | 38952 ft | 391 kts | 248° |
| 2026-05-06 14:21 | 41.28276 | -72.29028 | 38951 ft | 390 kts | 248° |
| 2026-05-06 14:21 | 41.23000 | -72.41524 | 38952 ft | 388 kts | 248° |
| 2026-05-06 14:22 | 41.17691 | -72.54047 | 38948 ft | 388 kts | 248° |
| 2026-05-06 14:22 | 41.12400 | -72.66471 | 38957 ft | 385 kts | 248° |
| 2026-05-06 14:23 | 41.09118 | -72.74146 | 38733 ft | 378 kts | 249° |
| 2026-05-06 14:23 | 41.07813 | -72.77193 | 38139 ft | 377 kts | 248° |
| 2026-05-06 14:23 | 41.06534 | -72.80188 | 37388 ft | 379 kts | 248° |
| 2026-05-06 14:24 | 41.05231 | -72.83236 | 36628 ft | 381 kts | 247° |
| 2026-05-06 14:24 | 41.03926 | -72.86281 | 36026 ft | 381 kts | 246° |
| 2026-05-06 14:24 | 41.02602 | -72.89359 | 35527 ft | 379 kts | 246° |
| 2026-05-06 14:24 | 41.01307 | -72.92365 | 35069 ft | 375 kts | 246° |
| 2026-05-06 14:25 | 41.00022 | -72.95348 | 34663 ft | 371 kts | 245° |
| 2026-05-06 14:25 | 40.99172 | -72.97317 | 34442 ft | 367 kts | 245° |
| 2026-05-06 14:25 | 40.97505 | -73.01181 | 33965 ft | 360 kts | 245° |
| 2026-05-06 14:25 | 40.96687 | -73.03075 | 33635 ft | 358 kts | 245° |
| 2026-05-06 14:26 | 40.95445 | -73.05952 | 33084 ft | 357 kts | 245° |
| 2026-05-06 14:26 | 40.94208 | -73.08814 | 32486 ft | 357 kts | 244° |
| 2026-05-06 14:26 | 40.92974 | -73.11669 | 31838 ft | 358 kts | 244° |
| 2026-05-06 14:26 | 40.91746 | -73.14504 | 31244 ft | 359 kts | 244° |
| 2026-05-06 14:27 | 40.90509 | -73.17356 | 30717 ft | 358 kts | 244° |
| 2026-05-06 14:27 | 40.89267 | -73.20217 | 30179 ft | 358 kts | 244° |
| 2026-05-06 14:27 | 40.88022 | -73.23086 | 29174 ft | 367 kts | 243° |
| 2026-05-06 14:27 | 40.86727 | -73.26074 | 27858 ft | 383 kts | 243° |
| 2026-05-06 14:28 | 40.85376 | -73.29181 | 26576 ft | 398 kts | 242° |
| 2026-05-06 14:28 | 40.83965 | -73.32420 | 25307 ft | 413 kts | 242° |
| 2026-05-06 14:28 | 40.82504 | -73.35767 | 24181 ft | 424 kts | 242° |
| 2026-05-06 14:28 | 40.81056 | -73.39074 | 22995 ft | 416 kts | 241° |
| 2026-05-06 14:29 | 40.79629 | -73.42335 | 21498 ft | 414 kts | 241° |
| 2026-05-06 14:29 | 40.78192 | -73.45617 | 20010 ft | 411 kts | 240° |
| 2026-05-06 14:29 | 40.76768 | -73.48866 | 18704 ft | 406 kts | 239° |
| 2026-05-06 14:29 | 40.75364 | -73.52067 | 17442 ft | 397 kts | 239° |
| 2026-05-06 14:30 | 40.73997 | -73.55181 | 16135 ft | 389 kts | 239° |
| 2026-05-06 14:30 | 40.72664 | -73.58214 | 14887 ft | 381 kts | 238° |
| 2026-05-06 14:30 | 40.71342 | -73.61219 | 13629 ft | 373 kts | 238° |
| 2026-05-06 14:30 | 40.70054 | -73.64143 | 12268 ft | 366 kts | 238° |
| 2026-05-06 14:31 | 40.68781 | -73.67028 | 11005 ft | 360 kts | 238° |
| 2026-05-06 14:31 | 40.67538 | -73.69832 | 9748 ft | 352 kts | 236° |
| 2026-05-06 14:31 | 40.66077 | -73.72385 | 8338 ft | 345 kts | 227° |
| 2026-05-06 14:31 | 40.64525 | -73.74754 | 7234 ft | 335 kts | 230° |
| 2026-05-06 14:32 | 40.63135 | -73.77050 | 6466 ft | 317 kts | 230° |
| 2026-05-06 14:32 | 40.61832 | -73.79220 | 5978 ft | 294 kts | 230° |
| 2026-05-06 14:32 | 40.60686 | -73.81348 | 5518 ft | 275 kts | 237° |
| 2026-05-06 14:32 | 40.59923 | -73.83614 | 5229 ft | 268 kts | 249° |
| 2026-05-06 14:33 | 40.59623 | -73.85907 | 5010 ft | 263 kts | 262° |
| 2026-05-06 14:33 | 40.59830 | -73.88320 | 4794 ft | 262 kts | 277° |
| 2026-05-06 14:33 | 40.60525 | -73.90422 | 4594 ft | 264 kts | 293° |
| 2026-05-06 14:33 | 40.61777 | -73.92227 | 4365 ft | 271 kts | 316° |
| 2026-05-06 14:34 | 40.63558 | -73.93073 | 4147 ft | 285 kts | 349° |
| 2026-05-06 14:34 | 40.65487 | -73.92554 | 3942 ft | 290 kts | 25° |
| 2026-05-06 14:34 | 40.66888 | -73.90784 | 3947 ft | 269 kts | 65° |
| 2026-05-06 14:34 | 40.67366 | -73.88552 | 4022 ft | 245 kts | 95° |
| 2026-05-06 14:35 | 40.67691 | -73.86295 | 3985 ft | 259 kts | 68° |
| 2026-05-06 14:35 | 40.68665 | -73.84283 | 3993 ft | 261 kts | 57° |
| 2026-05-06 14:35 | 40.69667 | -73.82322 | 3997 ft | 262 kts | 60° |
| 2026-05-06 14:35 | 40.70640 | -73.80283 | 3993 ft | 262 kts | 61° |
| 2026-05-06 14:36 | 40.71579 | -73.78226 | 3991 ft | 262 kts | 62° |
| 2026-05-06 14:36 | 40.72507 | -73.76151 | 3997 ft | 262 kts | 63° |
| 2026-05-06 14:36 | 40.73423 | -73.74073 | 3994 ft | 262 kts | 63° |
| 2026-05-06 14:36 | 40.74333 | -73.71991 | 3997 ft | 261 kts | 63° |
| 2026-05-06 14:37 | 40.75227 | -73.69938 | 3994 ft | 261 kts | 63° |
| 2026-05-06 14:37 | 40.76130 | -73.67858 | 3995 ft | 261 kts | 64° |
| 2026-05-06 14:37 | 40.77037 | -73.65765 | 3987 ft | 261 kts | 64° |
| 2026-05-06 14:37 | 40.77938 | -73.63684 | 3990 ft | 259 kts | 64° |
| 2026-05-06 14:38 | 40.78820 | -73.61643 | 3978 ft | 256 kts | 64° |
| 2026-05-06 14:38 | 40.79698 | -73.59612 | 3979 ft | 255 kts | 64° |
| 2026-05-06 14:38 | 40.80586 | -73.57563 | 4003 ft | 255 kts | 63° |
| 2026-05-06 14:38 | 40.81756 | -73.55829 | 3968 ft | 259 kts | 28° |
| 2026-05-06 14:39 | 40.83403 | -73.55217 | 3908 ft | 241 kts | 347° |
| 2026-05-06 14:39 | 40.84855 | -73.55940 | 3693 ft | 210 kts | 304° |
| 2026-05-06 14:39 | 40.85479 | -73.57445 | 3378 ft | 178 kts | 267° |
| 2026-05-06 14:39 | 40.85434 | -73.59002 | 3049 ft | 167 kts | 249° |
| 2026-05-06 14:40 | 40.84968 | -73.60375 | 2823 ft | 157 kts | 232° |
| 2026-05-06 14:40 | 40.84223 | -73.61296 | 2778 ft | 145 kts | 216° |
| 2026-05-06 14:40 | 40.83313 | -73.61849 | 2628 ft | 143 kts | 207° |
| 2026-05-06 14:40 | 40.82376 | -73.62298 | 2533 ft | 144 kts | 208° |
| 2026-05-06 14:41 | 40.81469 | -73.62732 | 2493 ft | 134 kts | 208° |
| 2026-05-06 14:41 | 40.80610 | -73.63096 | 2294 ft | 126 kts | 207° |
| 2026-05-06 14:41 | 40.79816 | -73.63549 | 2027 ft | 122 kts | 212° |
| 2026-05-06 14:41 | 40.79060 | -73.64081 | 1972 ft | 123 kts | 214° |
| 2026-05-06 14:42 | 40.78327 | -73.64640 | 1976 ft | 123 kts | 215° |
| 2026-05-06 14:42 | 40.77596 | -73.65224 | 2009 ft | 123 kts | 216° |
| 2026-05-06 14:42 | 40.76854 | -73.65811 | 1999 ft | 126 kts | 214° |
| 2026-05-06 14:42 | 40.76092 | -73.66405 | 1993 ft | 129 kts | 213° |
| 2026-05-06 14:43 | 40.75332 | -73.66994 | 1993 ft | 130 kts | 213° |
| 2026-05-06 14:43 | 40.74547 | -73.67606 | 1984 ft | 128 kts | 213° |
| 2026-05-06 14:43 | 40.73793 | -73.68200 | 1994 ft | 128 kts | 213° |
| 2026-05-06 14:43 | 40.73027 | -73.68802 | 1957 ft | 128 kts | 214° |
| 2026-05-06 14:44 | 40.72259 | -73.69404 | 1800 ft | 128 kts | 214° |
| 2026-05-06 14:44 | 40.71485 | -73.70015 | 1643 ft | 131 kts | 213° |
| 2026-05-06 14:44 | 40.70697 | -73.70634 | 1450 ft | 132 kts | 212° |
| 2026-05-06 14:45 | 40.69116 | -73.71876 | 1100 ft | 135 kts | 210° |
| 2026-05-06 14:45 | 40.68333 | -73.72492 | 923 ft | 132 kts | 211° |
| 2026-05-06 14:45 | 40.67555 | -73.73106 | 748 ft | 130 kts | 208° |
| 2026-05-06 14:45 | 40.66767 | -73.73721 | 576 ft | 133 kts | 208° |
| 2026-05-06 14:46 | 40.66000 | -73.74321 | 390 ft | 124 kts | 206° |
| 2026-05-06 14:46 | 40.65250 | -73.74701 | 225 ft | 116 kts | 194° |
| 2026-05-06 14:46 | 40.64558 | -73.75298 | 264 ft | 132 kts | 224° |
| 2026-05-06 14:46 | 40.63853 | -73.76026 | 32 ft | 123 kts | 206° |
| 2026-05-06 14:47 | 40.63302 | -73.76495 | 27 ft | 44 kts | 234° |
| 2026-05-06 14:47 | 40.63268 | -73.76569 | 27 ft | 0 kts | 243° |
| 2026-05-06 14:47 | 40.63262 | -73.76585 | 27 ft | 4 kts | 243° |
| 2026-05-06 14:47 | 40.63245 | -73.76642 | 26 ft | 9 kts | 256° |
| 2026-05-06 14:48 | 40.63255 | -73.76735 | 26 ft | 13 kts | 290° |
| 2026-05-06 14:48 | 40.63303 | -73.76862 | 26 ft | 19 kts | 298° |
| 2026-05-06 14:48 | 40.63379 | -73.77033 | 27 ft | 25 kts | 301° |
| 2026-05-06 14:48 | 40.63476 | -73.77248 | 27 ft | 30 kts | 301° |
| 2026-05-06 14:49 | 40.63588 | -73.77501 | 28 ft | 34 kts | 296° |
| 2026-05-06 14:49 | 40.63510 | -73.77715 | 27 ft | 26 kts | 217° |
| 2026-05-06 14:49 | 40.63365 | -73.77816 | 28 ft | 22 kts | 227° |
| 2026-05-06 14:49 | 40.63387 | -73.77981 | 27 ft | 18 kts | 302° |
| 2026-05-06 14:50 | 40.63450 | -73.78126 | 27 ft | 18 kts | 299° |
| 2026-05-06 14:50 | 40.63524 | -73.78250 | 27 ft | 15 kts | 343° |
| 2026-05-06 14:50 | 40.63629 | -73.78254 | 27 ft | 15 kts | 355° |
| 2026-05-06 14:50 | 40.63732 | -73.78268 | 27 ft | 16 kts | 351° |
| 2026-05-06 14:51 | 40.63851 | -73.78290 | 27 ft | 17 kts | 356° |
| 2026-05-06 14:51 | 40.63907 | -73.78251 | 27 ft | 9 kts | 58° |
| 2026-05-06 14:51 | 40.63921 | -73.78212 | 27 ft | 0 kts | 65° |